createdAt,value
2016-05-07T00:00:06.371Z,0
2016-05-07T00:01:06.343Z,0
2016-05-07T00:02:06.329Z,0
2016-05-07T00:03:06.301Z,0
2016-05-07T00:04:06.289Z,0
2016-05-07T00:05:06.291Z,0
2016-05-07T00:06:06.106Z,0
2016-05-07T00:07:06.234Z,0
2016-05-07T00:08:06.221Z,0
2016-05-07T00:09:06.192Z,0
2016-05-07T00:10:06.164Z,0
2016-05-07T00:11:06.150Z,0
2016-05-07T00:12:05.982Z,0
2016-05-07T00:13:06.125Z,0
2016-05-07T00:14:05.955Z,0
2016-05-07T00:15:06.069Z,0
2016-05-07T00:16:06.055Z,0
2016-05-07T00:17:06.041Z,0
2016-05-07T00:18:06.029Z,0
2016-05-07T00:19:06.000Z,0
2016-05-07T00:20:05.988Z,0
2016-05-07T00:21:05.975Z,0
2016-05-07T00:22:05.930Z,0
2016-05-07T00:23:05.761Z,0
2016-05-07T00:24:05.904Z,0
2016-05-07T00:25:05.891Z,0
2016-05-07T00:26:05.863Z,0
2016-05-07T00:27:05.976Z,0
2016-05-07T00:28:05.837Z,0
2016-05-07T00:29:05.652Z,0
2016-05-07T00:30:05.779Z,0
2016-05-07T00:31:05.783Z,0
2016-05-07T00:32:05.754Z,0
2016-05-07T00:33:05.585Z,0
2016-05-07T00:34:05.556Z,0
2016-05-07T00:35:05.715Z,0
2016-05-07T00:36:05.671Z,0
2016-05-07T00:37:05.642Z,0
2016-05-07T00:38:05.631Z,0
2016-05-07T00:39:05.617Z,0
2016-05-07T00:40:05.432Z,0
2016-05-07T00:41:05.575Z,0
2016-05-07T00:42:05.266Z,0
2016-05-07T00:43:05.533Z,0
2016-05-07T00:44:05.536Z,0
2016-05-07T00:45:05.195Z,0
2016-05-07T00:46:05.339Z,0
2016-05-07T00:47:05.466Z,0
2016-05-07T00:48:05.282Z,0
2016-05-07T00:49:05.425Z,0
2016-05-07T00:50:05.412Z,0
2016-05-07T00:51:05.383Z,0
2016-05-07T00:52:05.199Z,0
2016-05-07T00:53:05.341Z,0
2016-05-07T00:54:05.173Z,0
2016-05-07T00:55:05.301Z,0
2016-05-07T00:56:05.288Z,0
2016-05-07T00:57:05.369Z,0
2016-05-07T00:58:05.089Z,0
2016-05-07T00:59:05.218Z,0
2016-05-07T01:00:05.220Z,0
2016-05-07T01:01:05.035Z,0
2016-05-07T01:02:05.162Z,0
2016-05-07T01:03:05.150Z,0
2016-05-07T01:04:05.137Z,0
2016-05-07T01:05:05.124Z,0
2016-05-07T01:06:05.096Z,0
2016-05-07T01:07:05.067Z,0
2016-05-07T01:08:04.898Z,0
2016-05-07T01:09:04.869Z,0
2016-05-07T01:10:05.012Z,0
2016-05-07T01:11:04.844Z,0
2016-05-07T01:12:05.112Z,0
2016-05-07T01:13:04.802Z,0
2016-05-07T01:14:04.930Z,0
2016-05-07T01:15:04.745Z,0
2016-05-07T01:16:04.888Z,0
2016-05-07T01:17:04.875Z,0
2016-05-07T01:18:04.847Z,0
2016-05-07T01:19:04.833Z,0
2016-05-07T01:20:04.805Z,0
2016-05-07T01:21:04.635Z,0
2016-05-07T01:22:04.780Z,0
2016-05-07T01:23:04.751Z,0
2016-05-07T01:24:04.738Z,0
2016-05-07T01:25:04.552Z,0
2016-05-07T01:26:04.697Z,0
2016-05-07T01:27:04.948Z,0
2016-05-07T01:28:04.499Z,0
2016-05-07T01:29:04.643Z,0
2016-05-07T01:30:04.613Z,0
2016-05-07T01:31:04.600Z,0
2016-05-07T01:32:04.572Z,0
2016-05-07T01:33:04.559Z,0
2016-05-07T01:34:04.374Z,0
2016-05-07T01:35:04.502Z,0
2016-05-07T01:36:04.489Z,0
2016-05-07T01:37:04.460Z,0
2016-05-07T01:38:04.447Z,0
2016-05-07T01:39:04.434Z,0
2016-05-07T01:40:04.422Z,0
2016-05-07T01:41:04.524Z,0
2016-05-07T01:42:05.185Z,0
2016-05-07T01:43:04.364Z,0
2016-05-07T01:44:04.234Z,0
2016-05-07T01:45:04.241Z,0
2016-05-07T01:46:04.290Z,0
2016-05-07T01:47:04.277Z,0
2016-05-07T01:48:04.249Z,0
2016-05-07T01:49:04.220Z,0
2016-05-07T01:50:04.066Z,0
2016-05-07T01:51:04.054Z,0
2016-05-07T01:52:04.009Z,0
2016-05-07T01:53:04.136Z,0
2016-05-07T01:54:03.828Z,0
2016-05-07T01:55:04.127Z,0
2016-05-07T01:56:03.958Z,0
2016-05-07T01:57:04.508Z,0
2016-05-07T01:58:04.056Z,0
2016-05-07T01:59:04.028Z,0
2016-05-07T02:00:04.016Z,0
2016-05-07T02:01:03.986Z,0
2016-05-07T02:02:03.974Z,0
2016-05-07T02:03:03.961Z,0
2016-05-07T02:04:03.791Z,0
2016-05-07T02:05:03.904Z,0
2016-05-07T02:06:03.735Z,0
2016-05-07T02:07:03.722Z,0
2016-05-07T02:08:03.849Z,0
2016-05-07T02:09:03.836Z,0
2016-05-07T02:10:03.807Z,0
2016-05-07T02:11:03.482Z,0
2016-05-07T02:12:03.594Z,0
2016-05-07T02:13:03.769Z,0
2016-05-07T02:14:03.584Z,0
2016-05-07T02:15:03.712Z,0
2016-05-07T02:16:03.542Z,0
2016-05-07T02:17:03.671Z,0
2016-05-07T02:18:03.345Z,0
2016-05-07T02:19:03.629Z,0
2016-05-07T02:20:03.600Z,0
2016-05-07T02:21:03.431Z,0
2016-05-07T02:22:03.558Z,0
2016-05-07T02:23:03.562Z,0
2016-05-07T02:24:03.533Z,0
2016-05-07T02:25:03.507Z,0
2016-05-07T02:26:03.479Z,0
2016-05-07T02:27:03.856Z,0
2016-05-07T02:28:03.453Z,0
2016-05-07T02:29:03.268Z,0
2016-05-07T02:30:03.256Z,0
2016-05-07T02:31:03.242Z,0
2016-05-07T02:32:03.369Z,0
2016-05-07T02:33:03.341Z,0
2016-05-07T02:34:03.345Z,0
2016-05-07T02:35:03.144Z,0
2016-05-07T02:36:03.287Z,0
2016-05-07T02:37:03.289Z,0
2016-05-07T02:38:03.244Z,0
2016-05-07T02:39:03.217Z,0
2016-05-07T02:40:03.220Z,0
2016-05-07T02:41:03.191Z,0
2016-05-07T02:42:03.178Z,0
2016-05-07T02:43:03.149Z,0
2016-05-07T02:44:03.121Z,0
2016-05-07T02:45:02.968Z,0
2016-05-07T02:46:03.080Z,0
2016-05-07T02:47:03.066Z,0
2016-05-07T02:48:03.038Z,0
2016-05-07T02:49:02.868Z,0
2016-05-07T02:50:03.012Z,0
2016-05-07T02:51:02.984Z,0
2016-05-07T02:52:02.955Z,0
2016-05-07T02:53:02.785Z,0
2016-05-07T02:54:02.929Z,0
2016-05-07T02:55:02.901Z,0
2016-05-07T02:56:02.559Z,0
2016-05-07T02:57:03.250Z,0
2016-05-07T02:58:02.846Z,0
2016-05-07T02:59:02.817Z,0
2016-05-07T03:00:02.664Z,0
2016-05-07T03:01:02.776Z,0
2016-05-07T03:02:02.763Z,0
2016-05-07T03:03:02.750Z,0
2016-05-07T03:04:02.722Z,0
2016-05-07T03:05:02.553Z,0
2016-05-07T03:06:02.664Z,0
2016-05-07T03:07:02.667Z,0
2016-05-07T03:08:02.669Z,0
2016-05-07T03:09:02.625Z,0
2016-05-07T03:10:02.597Z,0
2016-05-07T03:11:02.569Z,0
2016-05-07T03:12:02.571Z,0
2016-05-07T03:13:02.386Z,0
2016-05-07T03:14:02.513Z,0
2016-05-07T03:15:02.345Z,0
2016-05-07T03:16:02.472Z,0
2016-05-07T03:17:02.304Z,0
2016-05-07T03:18:02.431Z,0
2016-05-07T03:19:02.277Z,0
2016-05-07T03:20:02.389Z,0
2016-05-07T03:21:02.393Z,0
2016-05-07T03:22:02.192Z,0
2016-05-07T03:23:02.335Z,0
2016-05-07T03:24:02.322Z,0
2016-05-07T03:25:02.294Z,0
2016-05-07T03:26:02.281Z,0
2016-05-07T03:27:02.112Z,0
2016-05-07T03:28:02.067Z,0
2016-05-07T03:29:02.054Z,0
2016-05-07T03:30:02.197Z,0
2016-05-07T03:31:02.170Z,0
2016-05-07T03:32:02.156Z,0
2016-05-07T03:33:02.128Z,0
2016-05-07T03:34:02.130Z,0
2016-05-07T03:35:02.087Z,0
2016-05-07T03:36:02.058Z,5
2016-05-07T03:37:02.061Z,5
2016-05-07T03:38:02.031Z,5
2016-05-07T03:39:02.003Z,5
2016-05-07T03:40:02.005Z,5
2016-05-07T03:41:01.962Z,5
2016-05-07T03:42:02.386Z,5
2016-05-07T03:43:01.919Z,10
2016-05-07T03:44:01.751Z,10
2016-05-07T03:45:01.738Z,10
2016-05-07T03:46:01.710Z,10
2016-05-07T03:47:01.525Z,15
2016-05-07T03:48:01.668Z,15
2016-05-07T03:49:01.796Z,15
2016-05-07T03:50:01.768Z,15
2016-05-07T03:51:01.770Z,20
2016-05-07T03:52:01.741Z,20
2016-05-07T03:53:01.712Z,20
2016-05-07T03:54:01.684Z,25
2016-05-07T03:55:01.531Z,25
2016-05-07T03:56:01.658Z,30
2016-05-07T03:57:01.818Z,30
2016-05-07T03:58:01.601Z,35
2016-05-07T03:59:01.588Z,35
2016-05-07T04:00:01.575Z,35
2016-05-07T04:01:01.562Z,40
2016-05-07T04:02:01.221Z,40
2016-05-07T04:03:01.520Z,45
2016-05-07T04:04:01.492Z,45
2016-05-07T04:05:01.464Z,50
2016-05-07T04:06:01.279Z,55
2016-05-07T04:07:01.438Z,55
2016-05-07T04:08:01.253Z,60
2016-05-07T04:09:01.381Z,60
2016-05-07T04:10:01.352Z,65
2016-05-07T04:11:01.339Z,65
2016-05-07T04:12:01.327Z,70
2016-05-07T04:13:01.297Z,75
2016-05-07T04:14:01.269Z,75
2016-05-07T04:15:01.256Z,80
2016-05-07T04:16:01.243Z,85
2016-05-07T04:17:01.230Z,85
2016-05-07T04:18:01.202Z,90
2016-05-07T04:19:01.189Z,90
2016-05-07T04:20:01.144Z,95
2016-05-07T04:21:00.991Z,100
2016-05-07T04:22:01.118Z,105
2016-05-07T04:23:01.090Z,105
2016-05-07T04:24:00.765Z,110
2016-05-07T04:25:01.065Z,110
2016-05-07T04:26:01.035Z,115
2016-05-07T04:27:01.382Z,120
2016-05-07T04:28:00.854Z,120
2016-05-07T04:29:00.809Z,125
2016-05-07T04:30:00.796Z,130
2016-05-07T04:31:00.784Z,130
2016-05-07T04:32:00.911Z,135
2016-05-07T04:33:00.914Z,140
2016-05-07T04:34:00.886Z,140
2016-05-07T04:35:00.684Z,145
2016-05-07T04:36:00.517Z,150
2016-05-07T04:37:00.815Z,150
2016-05-07T04:38:00.489Z,155
2016-05-07T04:39:00.775Z,155
2016-05-07T04:40:00.605Z,160
2016-05-07T04:41:00.732Z,165
2016-05-07T04:42:00.719Z,165
2016-05-07T04:43:00.692Z,170
2016-05-07T04:44:00.663Z,175
2016-05-07T04:45:00.665Z,175
2016-05-07T04:46:00.636Z,180
2016-05-07T04:47:00.452Z,180
2016-05-07T04:48:00.580Z,185
2016-05-07T04:49:00.566Z,190
2016-05-07T04:50:00.382Z,190
2016-05-07T04:51:00.525Z,190
2016-05-07T04:52:00.496Z,195
2016-05-07T04:53:00.312Z,195
2016-05-07T04:54:00.314Z,200
2016-05-07T04:55:00.145Z,200
2016-05-07T04:56:00.413Z,205
2016-05-07T04:57:00.401Z,215
2016-05-07T04:58:00.387Z,210
2016-05-07T04:59:00.374Z,215
2016-05-07T05:00:00.190Z,215
2016-05-07T05:01:00.177Z,220
2016-05-07T05:02:00.148Z,225
2016-05-07T05:03:00.276Z,225
2016-05-07T05:03:59.950Z,230
2016-05-07T05:05:00.251Z,230
2016-05-07T05:06:00.222Z,235
2016-05-07T05:07:00.036Z,235
2016-05-07T05:08:00.023Z,240
2016-05-07T05:09:00.011Z,240
2016-05-07T05:09:59.983Z,245
2016-05-07T05:11:00.111Z,250
2016-05-07T05:12:00.222Z,250
2016-05-07T05:13:00.584Z,260
2016-05-07T05:14:00.055Z,255
2016-05-07T05:14:59.886Z,260
2016-05-07T05:16:00.014Z,265
2016-05-07T05:17:00.002Z,265
2016-05-07T05:17:59.832Z,270
2016-05-07T05:18:59.803Z,275
2016-05-07T05:19:59.931Z,280
2016-05-07T05:20:59.933Z,285
2016-05-07T05:21:59.906Z,285
2016-05-07T05:22:59.893Z,290
2016-05-07T05:23:59.863Z,295
2016-05-07T05:24:59.851Z,300
2016-05-07T05:25:59.682Z,300
2016-05-07T05:26:59.762Z,305
2016-05-07T05:27:59.796Z,310
2016-05-07T05:28:59.612Z,310
2016-05-07T05:29:59.599Z,310
2016-05-07T05:30:59.726Z,315
2016-05-07T05:31:59.713Z,320
2016-05-07T05:32:59.529Z,325
2016-05-07T05:33:59.515Z,325
2016-05-07T05:34:59.659Z,330
2016-05-07T05:35:59.631Z,330
2016-05-07T05:36:59.648Z,335
2016-05-07T05:37:59.604Z,335
2016-05-07T05:38:59.576Z,340
2016-05-07T05:39:59.406Z,345
2016-05-07T05:40:59.551Z,345
2016-05-07T05:41:59.537Z,355
2016-05-07T05:42:59.649Z,350
2016-05-07T05:43:59.325Z,355
2016-05-07T05:44:59.467Z,360
2016-05-07T05:45:59.455Z,365
2016-05-07T05:46:59.285Z,385
2016-05-07T05:47:59.413Z,385
2016-05-07T05:48:59.400Z,390
2016-05-07T05:49:59.730Z,395
2016-05-07T05:50:59.358Z,395
2016-05-07T05:51:59.346Z,400
2016-05-07T05:52:59.333Z,405
2016-05-07T05:53:59.304Z,520
2016-05-07T05:54:59.135Z,745
2016-05-07T05:55:59.278Z,890
2016-05-07T05:56:59.265Z,915
2016-05-07T05:57:59.143Z,935
2016-05-07T05:58:59.224Z,950
2016-05-07T05:59:59.211Z,945
2016-05-07T06:00:59.198Z,970
2016-05-07T06:01:59.185Z,995
2016-05-07T06:02:59.156Z,1025
2016-05-07T06:03:59.159Z,1045
2016-05-07T06:04:58.974Z,1035
2016-05-07T06:05:59.118Z,1065
2016-05-07T06:06:58.948Z,1060
2016-05-07T06:07:58.935Z,1075
2016-05-07T06:08:58.923Z,1085
2016-05-07T06:09:59.051Z,1065
2016-05-07T06:10:58.725Z,1090
2016-05-07T06:11:59.039Z,1070
2016-05-07T06:12:59.011Z,1090
2016-05-07T06:13:58.998Z,1085
2016-05-07T06:14:58.829Z,1075
2016-05-07T06:15:58.973Z,1095
2016-05-07T06:16:58.959Z,1125
2016-05-07T06:17:58.947Z,1140
2016-05-07T06:18:58.934Z,1160
2016-05-07T06:19:58.922Z,1140
2016-05-07T06:20:58.908Z,1135
2016-05-07T06:21:58.755Z,1140
2016-05-07T06:22:58.741Z,1170
2016-05-07T06:23:58.900Z,1165
2016-05-07T06:24:58.856Z,1190
2016-05-07T06:25:58.687Z,1190
2016-05-07T06:26:58.674Z,1170
2016-05-07T06:27:58.786Z,890
2016-05-07T06:28:58.820Z,550
2016-05-07T06:29:58.807Z,435
2016-05-07T06:30:58.778Z,430
2016-05-07T06:31:58.624Z,435
2016-05-07T06:32:58.613Z,560
2016-05-07T06:33:58.584Z,930
2016-05-07T06:34:58.586Z,1235
2016-05-07T06:35:58.574Z,1300
2016-05-07T06:36:58.717Z,1320
2016-05-07T06:37:58.720Z,1315
2016-05-07T06:38:58.378Z,1345
2016-05-07T06:39:58.678Z,1355
2016-05-07T06:40:58.665Z,1280
2016-05-07T06:41:58.480Z,1005
2016-05-07T06:42:58.483Z,630
2016-05-07T06:43:58.641Z,435
2016-05-07T06:44:58.613Z,440
2016-05-07T06:45:58.616Z,450
2016-05-07T06:46:58.587Z,470
2016-05-07T06:47:58.575Z,745
2016-05-07T06:48:58.561Z,1120
2016-05-07T06:49:58.548Z,1390
2016-05-07T06:50:58.551Z,1450
2016-05-07T06:51:58.382Z,1465
2016-05-07T06:52:58.369Z,1495
2016-05-07T06:53:58.528Z,1475
2016-05-07T06:54:58.499Z,1475
2016-05-07T06:55:58.502Z,1500
2016-05-07T06:56:58.473Z,1500
2016-05-07T06:57:58.430Z,1525
2016-05-07T06:58:58.463Z,1550
2016-05-07T06:59:58.449Z,1540
2016-05-07T07:00:58.437Z,1520
2016-05-07T07:01:58.424Z,1585
2016-05-07T07:02:58.412Z,1535
2016-05-07T07:03:58.399Z,1510
2016-05-07T07:04:58.432Z,1550
2016-05-07T07:05:58.388Z,1585
2016-05-07T07:06:58.375Z,1605
2016-05-07T07:07:58.363Z,1610
2016-05-07T07:08:58.349Z,1675
2016-05-07T07:09:58.351Z,1690
2016-05-07T07:10:58.340Z,1660
2016-05-07T07:11:58.326Z,1585
2016-05-07T07:12:58.173Z,1590
2016-05-07T07:13:58.300Z,1630
2016-05-07T07:14:58.147Z,1565
2016-05-07T07:15:58.289Z,1525
2016-05-07T07:16:58.121Z,1515
2016-05-07T07:17:58.281Z,1560
2016-05-07T07:18:58.111Z,1545
2016-05-07T07:19:58.097Z,1445
2016-05-07T07:20:58.256Z,1445
2016-05-07T07:21:58.244Z,1405
2016-05-07T07:22:58.247Z,1310
2016-05-07T07:23:58.219Z,1205
2016-05-07T07:24:58.221Z,1105
2016-05-07T07:25:58.208Z,980
2016-05-07T07:26:58.038Z,945
2016-05-07T07:27:58.197Z,910
2016-05-07T07:28:58.199Z,885
2016-05-07T07:29:58.188Z,855
2016-05-07T07:30:57.863Z,845
2016-05-07T07:31:58.177Z,965
2016-05-07T07:32:58.007Z,1450
2016-05-07T07:33:58.010Z,1740
2016-05-07T07:34:58.154Z,1710
2016-05-07T07:35:57.829Z,1615
2016-05-07T07:36:58.129Z,1745
2016-05-07T07:37:58.131Z,1875
2016-05-07T07:38:58.134Z,1820
2016-05-07T07:39:58.104Z,1805
2016-05-07T07:40:57.654Z,2010
2016-05-07T07:41:58.110Z,2175
2016-05-07T07:42:58.316Z,2325
2016-05-07T07:43:58.084Z,2270
2016-05-07T07:44:57.931Z,2215
2016-05-07T07:45:58.073Z,2325
2016-05-07T07:46:57.920Z,2335
2016-05-07T07:47:58.064Z,2195
2016-05-07T07:48:58.067Z,2020
2016-05-07T07:49:58.053Z,1960
2016-05-07T07:50:58.041Z,2040
2016-05-07T07:51:58.043Z,2050
2016-05-07T07:52:58.047Z,2065
2016-05-07T07:53:57.877Z,2015
2016-05-07T07:54:58.036Z,1955
2016-05-07T07:55:58.023Z,2020
2016-05-07T07:56:57.853Z,2010
2016-05-07T07:57:58.700Z,1995
2016-05-07T07:58:57.999Z,2055
2016-05-07T07:59:58.002Z,2100
2016-05-07T08:00:58.005Z,2130
2016-05-07T08:01:57.992Z,2120
2016-05-07T08:02:57.823Z,2080
2016-05-07T08:03:57.857Z,2070
2016-05-07T08:04:57.984Z,2100
2016-05-07T08:05:57.972Z,2055
2016-05-07T08:06:57.974Z,1975
2016-05-07T08:07:57.805Z,2040
2016-05-07T08:08:57.964Z,2030
2016-05-07T08:09:57.967Z,2155
2016-05-07T08:10:57.813Z,2170
2016-05-07T08:11:57.940Z,2120
2016-05-07T08:12:58.178Z,2180
2016-05-07T08:13:57.946Z,2200
2016-05-07T08:14:57.792Z,2145
2016-05-07T08:15:57.937Z,2075
2016-05-07T08:16:57.939Z,2190
2016-05-07T08:17:57.925Z,2205
2016-05-07T08:18:57.928Z,2175
2016-05-07T08:19:57.915Z,2245
2016-05-07T08:20:57.918Z,2385
2016-05-07T08:21:57.921Z,2355
2016-05-07T08:22:57.908Z,2310
2016-05-07T08:23:57.910Z,2305
2016-05-07T08:24:57.913Z,2310
2016-05-07T08:25:57.917Z,2325
2016-05-07T08:26:57.903Z,2415
2016-05-07T08:27:57.765Z,2560
2016-05-07T08:28:57.757Z,2560
2016-05-07T08:29:57.958Z,2475
2016-05-07T08:30:57.833Z,2370
2016-05-07T08:31:57.878Z,2370
2016-05-07T08:32:58.065Z,2415
2016-05-07T08:33:58.107Z,2465
2016-05-07T08:34:57.969Z,2420
2016-05-07T08:35:58.706Z,2415
2016-05-07T08:36:58.146Z,2510
2016-05-07T08:37:58.007Z,2455
2016-05-07T08:38:58.008Z,2415
2016-05-07T08:39:58.189Z,2450
2016-05-07T08:40:58.182Z,2455
2016-05-07T08:41:58.175Z,2475
2016-05-07T08:42:58.199Z,2475
2016-05-07T08:43:58.191Z,2510
2016-05-07T08:44:58.196Z,2520
2016-05-07T08:45:58.045Z,2565
2016-05-07T08:46:58.189Z,2540
2016-05-07T08:47:58.193Z,2480
2016-05-07T08:48:58.199Z,2410
2016-05-07T08:49:58.046Z,2415
2016-05-07T08:50:58.034Z,2520
2016-05-07T08:51:58.038Z,2655
2016-05-07T08:52:58.197Z,2595
2016-05-07T08:53:58.200Z,2470
2016-05-07T08:54:58.187Z,2530
2016-05-07T08:55:58.191Z,2600
2016-05-07T08:56:58.069Z,2550
2016-05-07T08:57:58.197Z,2415
2016-05-07T08:58:58.185Z,2450
2016-05-07T08:59:57.890Z,2535
2016-05-07T09:00:57.877Z,2595
2016-05-07T09:01:58.036Z,2595
2016-05-07T09:02:58.038Z,2585
2016-05-07T09:03:58.199Z,2460
2016-05-07T09:04:58.029Z,2510
2016-05-07T09:05:58.188Z,2575
2016-05-07T09:06:58.190Z,2560
2016-05-07T09:07:58.193Z,2570
2016-05-07T09:08:58.196Z,2650
2016-05-07T09:09:58.183Z,2520
2016-05-07T09:10:58.029Z,2400
2016-05-07T09:11:58.188Z,2545
2016-05-07T09:12:58.065Z,2640
2016-05-07T09:13:58.194Z,2715
2016-05-07T09:14:58.196Z,2750
2016-05-07T09:15:58.184Z,2700
2016-05-07T09:16:58.186Z,2630
2016-05-07T09:17:58.189Z,2550
2016-05-07T09:18:58.035Z,2565
2016-05-07T09:19:58.195Z,2655
2016-05-07T09:20:58.025Z,2755
2016-05-07T09:21:58.183Z,2725
2016-05-07T09:22:58.187Z,2685
2016-05-07T09:23:58.033Z,2625
2016-05-07T09:24:58.192Z,2625
2016-05-07T09:25:58.039Z,2620
2016-05-07T09:26:58.025Z,2715
2016-05-07T09:27:58.263Z,2705
2016-05-07T09:28:58.047Z,2755
2016-05-07T09:29:58.205Z,2755
2016-05-07T09:30:58.271Z,2700
2016-05-07T09:31:58.179Z,2765
2016-05-07T09:32:58.041Z,2790
2016-05-07T09:33:58.185Z,2865
2016-05-07T09:34:58.032Z,2995
2016-05-07T09:35:58.191Z,875
2016-05-07T09:36:58.037Z,2415
2016-05-07T09:37:58.196Z,2890
2016-05-07T09:38:58.042Z,2945
2016-05-07T09:39:58.045Z,2880
2016-05-07T09:40:58.032Z,2885
2016-05-07T09:41:58.191Z,3095
2016-05-07T09:42:58.443Z,3230
2016-05-07T09:43:58.181Z,3135
2016-05-07T09:44:58.199Z,1050
2016-05-07T09:45:58.187Z,1530
2016-05-07T09:46:58.032Z,3095
2016-05-07T09:47:57.879Z,3160
2016-05-07T09:48:58.194Z,3050
2016-05-07T09:49:58.197Z,2985
2016-05-07T09:50:58.184Z,3100
2016-05-07T09:51:58.187Z,3045
2016-05-07T09:52:58.189Z,2985
2016-05-07T09:53:58.192Z,2965
2016-05-07T09:54:58.178Z,2970
2016-05-07T09:55:58.042Z,2985
2016-05-07T09:56:58.044Z,2935
2016-05-07T09:57:59.578Z,2650
2016-05-07T09:58:58.189Z,2580
2016-05-07T09:59:58.192Z,2815
2016-05-07T10:00:58.195Z,3045
2016-05-07T10:01:58.198Z,2950
2016-05-07T10:02:57.888Z,2905
2016-05-07T10:03:58.219Z,2965
2016-05-07T10:04:58.050Z,2955
2016-05-07T10:05:58.193Z,2935
2016-05-07T10:06:58.211Z,2890
2016-05-07T10:07:58.214Z,2955
2016-05-07T10:08:58.201Z,2985
2016-05-07T10:09:58.204Z,2960
2016-05-07T10:10:58.050Z,2970
2016-05-07T10:11:58.209Z,2860
2016-05-07T10:12:58.837Z,2860
2016-05-07T10:13:58.058Z,2815
2016-05-07T10:14:58.217Z,2910
2016-05-07T10:15:57.907Z,2990
2016-05-07T10:16:58.207Z,2980
2016-05-07T10:17:58.226Z,2990
2016-05-07T10:18:58.228Z,2930
2016-05-07T10:19:58.215Z,2970
2016-05-07T10:20:58.077Z,3030
2016-05-07T10:21:58.236Z,2970
2016-05-07T10:22:58.238Z,2960
2016-05-07T10:23:58.225Z,2915
2016-05-07T10:24:58.213Z,2940
2016-05-07T10:25:58.231Z,2940
2016-05-07T10:26:58.233Z,2800
2016-05-07T10:27:57.935Z,2905
2016-05-07T10:28:58.234Z,2890
2016-05-07T10:29:58.236Z,1815
2016-05-07T10:30:58.240Z,770
2016-05-07T10:31:58.227Z,695
2016-05-07T10:32:58.230Z,715
2016-05-07T10:33:58.075Z,1625
2016-05-07T10:34:58.236Z,2870
2016-05-07T10:35:58.238Z,3135
2016-05-07T10:36:58.224Z,3170
2016-05-07T10:37:58.228Z,3215
2016-05-07T10:38:58.089Z,3315
2016-05-07T10:39:58.232Z,3275
2016-05-07T10:40:58.251Z,2975
2016-05-07T10:41:58.238Z,2990
2016-05-07T10:42:58.100Z,3105
2016-05-07T10:43:58.087Z,3080
2016-05-07T10:44:58.246Z,3110
2016-05-07T10:45:58.077Z,2990
2016-05-07T10:46:58.079Z,2885
2016-05-07T10:47:58.238Z,3000
2016-05-07T10:48:58.085Z,3065
2016-05-07T10:49:58.244Z,3105
2016-05-07T10:50:58.246Z,3010
2016-05-07T10:51:58.093Z,3120
2016-05-07T10:52:58.252Z,3140
2016-05-07T10:53:58.254Z,3185
2016-05-07T10:54:58.242Z,3110
2016-05-07T10:55:57.931Z,3090
2016-05-07T10:56:58.248Z,3080
2016-05-07T10:57:58.406Z,3205
2016-05-07T10:58:58.095Z,3255
2016-05-07T10:59:58.099Z,3300
2016-05-07T11:00:57.945Z,3325
2016-05-07T11:01:58.244Z,3325
2016-05-07T11:02:58.106Z,3220
2016-05-07T11:03:58.267Z,3125
2016-05-07T11:04:58.253Z,3170
2016-05-07T11:05:58.255Z,3225
2016-05-07T11:06:58.259Z,3225
2016-05-07T11:07:58.261Z,3125
2016-05-07T11:08:58.091Z,2840
2016-05-07T11:09:58.250Z,1670
2016-05-07T11:10:58.097Z,1015
2016-05-07T11:11:58.256Z,3070
2016-05-07T11:12:58.258Z,1190
2016-05-07T11:13:58.261Z,1910
2016-05-07T11:14:58.249Z,1555
2016-05-07T11:15:58.251Z,905
2016-05-07T11:16:58.254Z,2775
2016-05-07T11:17:58.116Z,3235
2016-05-07T11:18:58.104Z,825
2016-05-07T11:19:58.246Z,725
2016-05-07T11:20:58.249Z,3310
2016-05-07T11:21:58.298Z,3440
2016-05-07T11:22:58.239Z,3245
2016-05-07T11:23:58.085Z,3250
2016-05-07T11:24:58.229Z,3230
2016-05-07T11:25:58.231Z,3245
2016-05-07T11:26:58.093Z,3300
2016-05-07T11:27:58.565Z,3045
2016-05-07T11:28:58.223Z,580
2016-05-07T11:29:58.226Z,3305
2016-05-07T11:30:58.229Z,985
2016-05-07T11:31:58.216Z,690
2016-05-07T11:32:58.220Z,665
2016-05-07T11:33:58.050Z,645
2016-05-07T11:34:58.209Z,700
2016-05-07T11:35:58.195Z,3555
2016-05-07T11:36:58.041Z,3420
2016-05-07T11:37:58.186Z,3295
2016-05-07T11:38:58.172Z,3410
2016-05-07T11:39:58.175Z,3400
2016-05-07T11:40:58.177Z,1215
2016-05-07T11:41:58.009Z,3335
2016-05-07T11:42:58.886Z,3330
2016-05-07T11:43:58.154Z,3335
2016-05-07T11:44:58.158Z,3285
2016-05-07T11:45:58.144Z,3285
2016-05-07T11:46:57.991Z,3245
2016-05-07T11:47:58.134Z,3175
2016-05-07T11:48:57.996Z,3195
2016-05-07T11:49:58.124Z,1725
2016-05-07T11:50:57.971Z,3020
2016-05-07T11:51:58.113Z,1105
2016-05-07T11:52:58.116Z,2845
2016-05-07T11:53:57.948Z,720
2016-05-07T11:54:58.106Z,3055
2016-05-07T11:55:57.937Z,3070
2016-05-07T11:56:58.095Z,3105
2016-05-07T11:57:57.943Z,3150
2016-05-07T11:58:58.070Z,3155
2016-05-07T11:59:57.948Z,3035
2016-05-07T12:00:58.091Z,3025
2016-05-07T12:01:57.906Z,3180
2016-05-07T12:02:58.065Z,3240
2016-05-07T12:03:57.895Z,2825
2016-05-07T12:04:57.898Z,2385
2016-05-07T12:05:58.073Z,2920
2016-05-07T12:06:58.045Z,3255
2016-05-07T12:07:58.031Z,3280
2016-05-07T12:08:57.863Z,2085
2016-05-07T12:09:58.022Z,2920
2016-05-07T12:10:58.008Z,3200
2016-05-07T12:11:58.011Z,3325
2016-05-07T12:12:57.858Z,3400
2016-05-07T12:13:58.001Z,3210
2016-05-07T12:14:57.847Z,1655
2016-05-07T12:15:57.991Z,910
2016-05-07T12:16:57.977Z,640
2016-05-07T12:17:57.840Z,3400
2016-05-07T12:18:57.983Z,3280
2016-05-07T12:19:57.986Z,3285
2016-05-07T12:20:57.973Z,3375
2016-05-07T12:21:57.804Z,3430
2016-05-07T12:22:57.791Z,3415
2016-05-07T12:23:57.949Z,3395
2016-05-07T12:24:57.952Z,3480
2016-05-07T12:25:57.783Z,3425
2016-05-07T12:26:57.927Z,3260
2016-05-07T12:27:58.304Z,3195
2016-05-07T12:28:57.932Z,3310
2016-05-07T12:29:57.934Z,3205
2016-05-07T12:30:57.765Z,3325
2016-05-07T12:31:57.909Z,3280
2016-05-07T12:32:57.911Z,3340
2016-05-07T12:33:57.915Z,3445
2016-05-07T12:34:57.900Z,3425
2016-05-07T12:35:57.904Z,3360
2016-05-07T12:36:57.891Z,3220
2016-05-07T12:37:57.737Z,3070
2016-05-07T12:38:57.880Z,3065
2016-05-07T12:39:57.884Z,3305
2016-05-07T12:40:57.730Z,3355
2016-05-07T12:41:57.873Z,3265
2016-05-07T12:42:58.485Z,3250
2016-05-07T12:43:57.863Z,3110
2016-05-07T12:44:57.553Z,3110
2016-05-07T12:45:57.853Z,3235
2016-05-07T12:46:57.871Z,3295
2016-05-07T12:47:57.702Z,3275
2016-05-07T12:48:57.846Z,3440
2016-05-07T12:49:57.848Z,3315
2016-05-07T12:50:57.694Z,3460
2016-05-07T12:51:57.712Z,1320
2016-05-07T12:52:57.934Z,1950
2016-05-07T12:53:57.842Z,3380
2016-05-07T12:54:57.846Z,3325
2016-05-07T12:55:57.832Z,3205
2016-05-07T12:56:57.835Z,3180
2016-05-07T12:57:57.666Z,3160
2016-05-07T12:58:57.669Z,3275
2016-05-07T12:59:57.812Z,3320
2016-05-07T13:00:57.659Z,3360
2016-05-07T13:01:57.818Z,3210
2016-05-07T13:02:57.664Z,3085
2016-05-07T13:03:57.823Z,3180
2016-05-07T13:04:57.809Z,3080
2016-05-07T13:05:57.656Z,2775
2016-05-07T13:06:57.815Z,3500
2016-05-07T13:07:57.661Z,775
2016-05-07T13:08:57.820Z,695
2016-05-07T13:09:57.652Z,750
2016-05-07T13:10:57.795Z,3280
2016-05-07T13:11:57.813Z,3195
2016-05-07T13:12:57.863Z,3300
2016-05-07T13:13:57.787Z,3400
2016-05-07T13:14:57.806Z,3470
2016-05-07T13:15:57.793Z,3305
2016-05-07T13:16:57.795Z,3310
2016-05-07T13:17:57.641Z,3300
2016-05-07T13:18:57.629Z,3345
2016-05-07T13:19:57.632Z,3365
2016-05-07T13:20:57.634Z,3375
2016-05-07T13:21:57.793Z,3230
2016-05-07T13:22:57.483Z,3165
2016-05-07T13:23:57.626Z,800
2016-05-07T13:24:57.785Z,2580
2016-05-07T13:25:57.632Z,3270
2016-05-07T13:26:57.635Z,1620
2016-05-07T13:27:58.340Z,3300
2016-05-07T13:28:57.624Z,3285
2016-05-07T13:29:57.642Z,3230
2016-05-07T13:30:57.629Z,3460
2016-05-07T13:31:57.789Z,3035
2016-05-07T13:32:57.792Z,3305
2016-05-07T13:33:57.637Z,2590
2016-05-07T13:34:57.797Z,3335
2016-05-07T13:35:57.800Z,3440
2016-05-07T13:36:57.631Z,3260
2016-05-07T13:37:57.648Z,3395
2016-05-07T13:38:57.636Z,3495
2016-05-07T13:39:57.795Z,3390
2016-05-07T13:40:57.797Z,3380
2016-05-07T13:41:57.800Z,3415
2016-05-07T13:42:57.709Z,3470
2016-05-07T13:43:57.650Z,3405
2016-05-07T13:44:57.652Z,3355
2016-05-07T13:45:57.811Z,3355
2016-05-07T13:46:57.797Z,3295
2016-05-07T13:47:57.816Z,3250